Time;durP1;ratioP1;P1;durP2;ratioP2;P2;SDS_P1;SDS_P2;PMS_P1;PMS_P2;Temp;Humidity;BMP_temperature;BMP_pressure;BME280_temperature;BME280_humidity;BME280_pressure;Samples;Min_cycle;Max_cycle;Signal;HPM_P1;HPM_P2
2023/07/27 07:50:36;;;;;;;;;;;;;;;8.12;100.00;99054.28;5524931;22;19924;-83
2023/07/27 07:53:02;;;;;;;;;;;;;;;8.15;100.00;99050.66;5041543;28;19937;-81
2023/07/27 07:55:27;;;;;;;;;;;;;;;8.16;100.00;99063.78;5042029;28;19925;-82
2023/07/27 07:57:52;;;;;;;;;;;;;;;8.15;100.00;99048.88;5044472;28;19931;-81
2023/07/27 08:00:18;;;;;;;;;;;;;;;8.16;100.00;99042.66;5068924;28;20429;-84
2023/07/27 08:02:43;;;;;;;;;;;;;;;8.19;100.00;99045.16;5045036;28;19990;-82
2023/07/27 08:05:08;;;;;;;;;;;;;;;8.19;100.00;99037.25;5042163;28;19921;-80
2023/07/27 08:07:34;;;;;;;;;;;;;;;8.23;100.00;99032.69;5047222;28;20023;-82
2023/07/27 08:10:01;;;;;;;;;;;;;;;8.22;100.00;99025.72;5045269;28;20278;-82
2023/07/27 08:12:27;;;;;;;;;;;;;;;8.28;100.00;99033.34;5044199;28;19925;-82
2023/07/27 08:14:52;;;;;;;;;;;;;;;8.29;100.00;99032.41;5047779;28;19932;-82
2023/07/27 08:17:18;;;;;;;;;;;;;;;8.31;100.00;99040.25;5060697;28;19928;-82
2023/07/27 08:19:43;;;;;;;;;;;;;;;8.38;100.00;99036.41;5045389;28;20276;-81
2023/07/27 08:22:08;;;;;;;;;;;;;;;8.35;100.00;99033.91;5045505;28;20378;-82
2023/07/27 08:24:34;;;;;;;;;;;;;;;8.39;100.00;99030.19;5045542;28;20344;-82
2023/07/27 08:26:59;;;;;;;;;;;;;;;8.39;100.00;99030.19;5043453;28;20364;-82
2023/07/27 08:29:25;;;;;;;;;;;;;;;8.40;100.00;99026.63;5044433;28;19925;-83
2023/07/27 08:31:50;;;;;;;;;;;;;;;8.42;100.00;99027.41;5044947;28;19999;-81
2023/07/27 08:34:16;;;;;;;;;;;;;;;8.40;100.00;99033.72;5043693;28;19956;-82
2023/07/27 08:36:41;;;;;;;;;;;;;;;8.43;100.00;99029.16;5044637;28;19917;-82
2023/07/27 08:39:06;;;;;;;;;;;;;;;8.42;100.00;99024.78;5044635;28;19917;-81
2023/07/27 08:41:32;;;;;;;;;;;;;;;8.45;100.00;99029.09;5043492;28;19928;-81
2023/07/27 08:43:58;;;;;;;;;;;;;;;8.48;100.00;99027.16;5043558;28;20355;-81
2023/07/27 08:46:24;;;;;;;;;;;;;;;8.47;100.00;99027.25;5044270;28;20022;-87
2023/07/27 08:48:49;;;;;;;;;;;;;;;8.48;100.00;99021.88;5042969;28;19920;-82
2023/07/27 08:51:14;;;;;;;;;;;;;;;8.50;100.00;99017.41;5043289;28;20339;-81
2023/07/27 08:53:39;;;;;;;;;;;;;;;8.56;100.00;99023.34;5042788;28;20368;-82
2023/07/27 08:56:05;;;;;;;;;;;;;;;8.56;100.00;99018.91;5044257;28;20384;-82
2023/07/27 08:58:30;;;;;;;;;;;;;;;8.58;100.00;99021.47;5042910;28;20364;-84
2023/07/27 09:00:55;;;;;;;;;;;;;;;8.59;100.00;99016.13;5043112;28;19916;-82
2023/07/27 09:03:21;;;;;;;;;;;;;;;8.59;100.00;99023.19;5042901;28;19967;-82
2023/07/27 09:05:57;;;;;;;;;;;;;;;8.59;100.00;99017.91;5042621;28;19928;-82
2023/07/27 09:08:22;;;;;;;;;;;;;;;8.65;100.00;99018.47;5068181;28;19979;-84
2023/07/27 09:10:48;;;;;;;;;;;;;;;7.84;100.00;99022.13;5042909;28;20403;-82
2023/07/27 09:13:13;;;;;;;;;;;;;;;7.30;100.00;99022.63;5042687;28;20348;-81
2023/07/27 09:15:43;;;;;;;;;;;;;;;7.00;100.00;99017.69;5067049;28;20003;-82
2023/07/27 09:18:10;;;;;;;;;;;;;;;6.91;100.00;99012.81;5043832;28;20384;-82
2023/07/27 09:20:35;;;;;;;;;;;;;;;6.74;100.00;99010.84;5041022;28;19917;-82
2023/07/27 09:23:00;;;;;;;;;;;;;;;6.66;100.00;99012.94;5043594;28;19917;-82
2023/07/27 09:25:26;;;;;;;;;;;;;;;6.63;100.00;99011.25;5044160;28;19917;-80
2023/07/27 09:27:53;;;;;;;;;;;;;;;6.56;100.00;99012.44;5043979;28;19925;-85
2023/07/27 09:30:19;;;;;;;;;;;;;;;6.49;100.00;99008.31;5042272;28;19921;-84
2023/07/27 09:32:45;;;;;;;;;;;;;;;6.44;100.00;99012.91;5043681;28;20421;-84
2023/07/27 09:35:14;;;;;;;;;;;;;;;6.42;100.00;99009.47;5040832;28;20311;-83
2023/07/27 09:37:44;;;;;;;;;;;;;;;6.38;100.00;99011.34;5043438;28;19925;-83
2023/07/27 09:40:12;;;;;;;;;;;;;;;6.34;100.00;99007.97;5043810;28;19928;-84
2023/07/27 09:42:38;;;;;;;;;;;;;;;6.32;100.00;99007.19;5043115;28;20434;-83
2023/07/27 09:45:03;;;;;;;;;;;;;;;6.29;100.00;99009.94;5043722;28;20047;-83
2023/07/27 09:47:31;;;;;;;;;;;;;;;6.30;100.00;99009.03;5043046;28;19924;-83
2023/07/27 09:50:00;;;;;;;;;;;;;;;6.25;100.00;99007.47;5042168;28;19960;-83
2023/07/27 09:52:25;;;;;;;;;;;;;;;6.21;100.00;99006.75;5038731;28;20011;-84
2023/07/27 09:54:53;;;;;;;;;;;;;;;6.20;100.00;99006.78;5043037;28;20387;-82
2023/07/27 09:57:20;;;;;;;;;;;;;;;6.18;100.00;99006.84;5043742;28;19999;-84
2023/07/27 09:59:45;;;;;;;;;;;;;;;6.14;100.00;98997.34;5041731;28;19924;-85
2023/07/27 10:02:12;;;;;;;;;;;;;;;6.13;100.00;99004.38;5066055;28;19920;-83
2023/07/27 10:04:37;;;;;;;;;;;;;;;6.08;100.00;99002.81;5041168;28;19917;-84
2023/07/27 10:07:03;;;;;;;;;;;;;;;6.06;100.00;98999.41;5041998;28;20321;-83
2023/07/27 10:09:29;;;;;;;;;;;;;;;6.06;100.00;99002.03;5041593;28;19917;-83
2023/07/27 10:12:03;;;;;;;;;;;;;;;6.02;100.00;99005.72;5041283;28;20432;-82
2023/07/27 10:14:29;;;;;;;;;;;;;;;5.99;100.00;99007.53;5043590;28;19917;-83
2023/07/27 10:17:07;;;;;;;;;;;;;;;5.99;100.00;99004.88;5041215;28;19951;-83
2023/07/27 10:19:41;;;;;;;;;;;;;;;6.03;100.00;99003.03;5064712;28;20383;-82
2023/07/27 10:22:14;;;;;;;;;;;;;;;5.98;100.00;99008.44;5041416;28;19964;-83
2023/07/27 10:24:58;;;;;;;;;;;;;;;5.95;100.00;99011.16;5066415;28;19916;-83
2023/07/27 10:27:23;;;;;;;;;;;;;;;5.94;100.00;99004.16;5041190;28;20018;-84
2023/07/27 10:30:09;;;;;;;;;;;;;;;5.95;100.00;99005.91;5037836;28;19917;-83
2023/07/27 10:32:37;;;;;;;;;;;;;;;5.98;100.00;99004.94;5042385;28;19920;-83
2023/07/27 10:35:08;;;;;;;;;;;;;;;5.94;100.00;99005.97;5040900;28;19917;-83
2023/07/27 10:37:51;;;;;;;;;;;;;;;5.97;100.00;98998.84;5038198;28;19920;-83
2023/07/27 10:40:22;;;;;;;;;;;;;;;5.96;100.00;99002.38;5065787;28;19928;-83
2023/07/27 10:42:55;;;;;;;;;;;;;;;5.95;100.00;99002.38;5042259;28;19943;-83
2023/07/27 10:45:25;;;;;;;;;;;;;;;5.93;100.00;98997.19;5041660;28;19912;-83
2023/07/27 10:47:50;;;;;;;;;;;;;;;5.99;100.00;99007.53;5066427;28;19917;-86
2023/07/27 10:50:17;;;;;;;;;;;;;;;5.89;100.00;99006.13;5040748;28;19917;-83
2023/07/27 10:52:43;;;;;;;;;;;;;;;5.89;100.00;99006.13;5041754;28;19950;-83
2023/07/27 10:55:08;;;;;;;;;;;;;;;5.91;100.00;98999.03;5042220;28;19925;-83
2023/07/27 10:57:34;;;;;;;;;;;;;;;5.95;100.00;99005.91;5042658;28;19963;-83
2023/07/27 10:59:59;;;;;;;;;;;;;;;5.94;100.00;99001.53;5040712;28;20323;-83
2023/07/27 11:02:26;;;;;;;;;;;;;;;5.86;100.00;99000.13;5041929;28;19939;-83
2023/07/27 11:04:53;;;;;;;;;;;;;;;5.91;100.00;99003.44;5040837;28;19921;-82
2023/07/27 11:07:24;;;;;;;;;;;;;;;5.88;100.00;99003.53;5041894;28;19917;-82
2023/07/27 11:09:49;;;;;;;;;;;;;;;5.89;100.00;98998.22;5040754;28;20020;-82
2023/07/27 11:12:15;;;;;;;;;;;;;;;5.89;100.00;98992.97;5041716;28;19995;-87
2023/07/27 11:14:42;;;;;;;;;;;;;;;5.87;100.00;98992.19;5040376;28;19962;-82
2023/07/27 11:17:08;;;;;;;;;;;;;;;5.84;100.00;98984.41;5042096;28;19920;-83
2023/07/27 11:19:33;;;;;;;;;;;;;;;5.88;100.00;98987.75;5040402;28;20008;-85
2023/07/27 11:21:59;;;;;;;;;;;;;;;5.89;100.00;98981.56;5040262;28;19921;-84
2023/07/27 11:24:24;;;;;;;;;;;;;;;5.94;100.00;98971.78;5040643;28;19916;-82
2023/07/27 11:26:49;;;;;;;;;;;;;;;5.91;100.00;98970.09;5040653;28;19924;-82
2023/07/27 11:29:16;;;;;;;;;;;;;;;5.92;100.00;98969.19;5040078;28;19924;-82
2023/07/27 11:31:51;;;;;;;;;;;;;;;5.92;100.00;98963.94;5065578;28;19927;-84
2023/07/27 11:34:20;;;;;;;;;;;;;;;5.94;100.00;98966.50;5040423;28;20004;-83
2023/07/27 11:36:49;;;;;;;;;;;;;;;5.92;100.00;98963.94;5042190;28;20378;-83
2023/07/27 11:39:15;;;;;;;;;;;;;;;5.93;100.00;98967.41;5040841;28;20279;-83
2023/07/27 11:41:40;;;;;;;;;;;;;;;5.97;100.00;98976.94;5041341;28;19917;-83
2023/07/27 11:44:06;;;;;;;;;;;;;;;5.96;100.00;98965.56;5042004;28;19920;-83
2023/07/27 11:46:39;;;;;;;;;;;;;;;5.95;100.00;98966.44;5040520;28;19929;-84
2023/07/27 11:49:04;;;;;;;;;;;;;;;5.96;100.00;98967.31;5041041;28;19963;-83
2023/07/27 11:51:29;;;;;;;;;;;;;;;5.94;100.00;98962.09;5041089;28;19929;-83
2023/07/27 11:53:55;;;;;;;;;;;;;;;5.95;100.00;98970.84;5041659;28;20346;-83
2023/07/27 11:56:20;;;;;;;;;;;;;;;5.95;100.00;98966.44;5040328;28;19917;-83
2023/07/27 11:58:46;;;;;;;;;;;;;;;5.91;100.00;98970.09;5040676;28;19921;-83
2023/07/27 12:01:11;;;;;;;;;;;;;;;5.92;100.00;98970.94;5039892;28;19921;-83
2023/07/27 12:03:38;;;;;;;;;;;;;;;5.89;100.00;98974.56;5040275;28;19968;-83
2023/07/27 12:06:04;;;;;;;;;;;;;;;5.89;100.00;98979.81;5038745;28;19921;-82
2023/07/27 12:08:30;;;;;;;;;;;;;;;5.90;100.00;98981.53;5039933;28;20008;-83
2023/07/27 12:10:57;;;;;;;;;;;;;;;5.87;100.00;98976.41;5040130;28;19917;-83
2023/07/27 12:13:24;;;;;;;;;;;;;;;5.90;100.00;98980.66;5040190;28;20335;-82
2023/07/27 12:16:00;;;;;;;;;;;;;;;5.94;100.00;98982.28;5039312;28;20008;-83
2023/07/27 12:18:26;;;;;;;;;;;;;;;5.93;100.00;98976.16;5041431;28;20419;-83
2023/07/27 12:20:53;;;;;;;;;;;;;;;5.92;100.00;98979.72;5038998;28;19948;-86
2023/07/27 12:23:18;;;;;;;;;;;;;;;5.91;100.00;98983.25;5040074;28;19924;-83
2023/07/27 12:25:43;;;;;;;;;;;;;;;5.95;100.00;98982.22;5040510;28;19917;-83
2023/07/27 12:28:09;;;;;;;;;;;;;;;5.93;100.00;98981.41;5043540;28;19921;-83
2023/07/27 12:30:34;;;;;;;;;;;;;;;5.94;100.00;98977.88;5045139;28;19921;-83
2023/07/27 12:32:59;;;;;;;;;;;;;;;5.97;100.00;98985.69;5044361;28;19924;-83
2023/07/27 12:35:25;;;;;;;;;;;;;;;6.03;100.00;98973.22;5043168;28;19921;-82
2023/07/27 12:37:50;;;;;;;;;;;;;;;5.96;100.00;98973.44;5043733;28;19916;-83
2023/07/27 12:40:15;;;;;;;;;;;;;;;6.02;100.00;98959.22;5044849;28;19921;-83
2023/07/27 12:42:40;;;;;;;;;;;;;;;6.03;100.00;98963.56;5043036;28;19917;-85
2023/07/27 12:45:06;;;;;;;;;;;;;;;6.02;100.00;98964.47;5044413;28;19979;-83
2023/07/27 12:47:31;;;;;;;;;;;;;;;6.03;100.00;98960.94;5042841;28;19986;-84
2023/07/27 12:49:57;;;;;;;;;;;;;;;6.05;100.00;98958.22;5041614;28;19921;-84
2023/07/27 12:52:22;;;;;;;;;;;;;;;6.07;100.00;98956.41;5044706;28;20379;-83
2023/07/27 12:54:47;;;;;;;;;;;;;;;6.08;100.00;98963.38;5042874;28;20347;-83
2023/07/27 12:57:13;;;;;;;;;;;;;;;6.02;100.00;98953.97;5044033;28;19928;-83
2023/07/27 12:59:40;;;;;;;;;;;;;;;5.98;100.00;98947.97;5042930;28;19925;-83
2023/07/27 13:02:05;;;;;;;;;;;;;;;6.05;100.00;98959.09;5038820;28;20386;-84
2023/07/27 13:04:31;;;;;;;;;;;;;;;6.07;100.00;98956.41;5041539;28;19917;-84
2023/07/27 13:06:56;;;;;;;;;;;;;;;6.00;100.00;98959.28;5037699;28;20369;-83
2023/07/27 13:09:22;;;;;;;;;;;;;;;6.04;100.00;98960.00;5067687;28;19921;-84
2023/07/27 13:11:48;;;;;;;;;;;;;;;6.00;100.00;98950.53;5042559;28;20269;-83
2023/07/27 13:14:13;;;;;;;;;;;;;;;5.99;100.00;98949.66;5042241;28;20406;-83
2023/07/27 13:16:38;;;;;;;;;;;;;;;6.06;100.00;98947.66;5042865;28;19917;-83
2023/07/27 13:19:04;;;;;;;;;;;;;;;6.03;100.00;98945.16;5041679;28;19940;-83
2023/07/27 13:21:30;;;;;;;;;;;;;;;6.04;100.00;98941.59;5041791;28;20272;-83
2023/07/27 13:23:55;;;;;;;;;;;;;;;6.06;100.00;98936.28;5043941;28;19921;-83
2023/07/27 13:26:21;;;;;;;;;;;;;;;6.05;100.00;98934.56;5043862;28;19917;-83
2023/07/27 13:28:46;;;;;;;;;;;;;;;6.05;100.00;98940.69;5042263;28;19924;-83
2023/07/27 13:31:12;;;;;;;;;;;;;;;6.10;100.00;98928.22;5042777;28;19928;-83
2023/07/27 13:33:37;;;;;;;;;;;;;;;6.06;100.00;98929.25;5043907;28;20007;-86
2023/07/27 13:36:02;;;;;;;;;;;;;;;6.11;100.00;98926.44;5041610;28;20124;-83
2023/07/27 13:38:27;;;;;;;;;;;;;;;6.11;100.00;98921.19;5066442;28;19944;-83
2023/07/27 13:40:53;;;;;;;;;;;;;;;6.11;100.00;98929.06;5043827;28;19917;-84
2023/07/27 13:43:18;;;;;;;;;;;;;;;6.14;100.00;98931.59;5043773;28;20002;-83
2023/07/27 13:45:44;;;;;;;;;;;;;;;6.15;100.00;98930.69;5043668;28;19917;-84
2023/07/27 13:48:09;;;;;;;;;;;;;;;6.13;100.00;98930.75;5043189;28;19917;-83
2023/07/27 13:50:34;;;;;;;;;;;;;;;6.13;100.00;98927.25;5042239;28;19921;-83
2023/07/27 13:53:00;;;;;;;;;;;;;;;6.15;100.00;98923.63;5043661;28;20473;-84
2023/07/27 13:55:25;;;;;;;;;;;;;;;6.22;100.00;98929.50;5043296;28;20280;-84
2023/07/27 13:57:50;;;;;;;;;;;;;;;6.20;100.00;98927.88;5043054;28;19947;-83
2023/07/27 14:00:15;;;;;;;;;;;;;;;6.19;100.00;98919.13;5041872;28;19923;-84
2023/07/27 14:02:41;;;;;;;;;;;;;;;6.18;100.00;98918.25;5042370;28;19924;-84
2023/07/27 14:05:06;;;;;;;;;;;;;;;6.19;100.00;98919.13;5040072;28;19918;-83
2023/07/27 14:07:31;;;;;;;;;;;;;;;6.22;100.00;98916.34;5043015;28;19967;-84
2023/07/27 14:09:57;;;;;;;;;;;;;;;6.17;100.00;98910.44;5043392;28;19924;-84
2023/07/27 14:12:22;;;;;;;;;;;;;;;6.23;100.00;98898.81;5041642;28;19921;-85
2023/07/27 14:14:47;;;;;;;;;;;;;;;6.18;100.00;98901.63;5042796;28;19918;-84
2023/07/27 14:17:13;;;;;;;;;;;;;;;6.20;100.00;98898.94;5041444;28;20006;-83
2023/07/27 14:19:38;;;;;;;;;;;;;;;6.12;100.00;98891.34;5040518;28;20376;-84
2023/07/27 14:22:03;;;;;;;;;;;;;;;6.20;100.00;98902.41;5042789;28;20035;-84
2023/07/27 14:24:28;;;;;;;;;;;;;;;6.19;100.00;98892.84;5040986;28;19964;-84
2023/07/27 14:26:54;;;;;;;;;;;;;;;6.19;100.00;98890.19;5041225;28;19916;-84
2023/07/27 14:29:19;;;;;;;;;;;;;;;6.19;100.00;98892.84;5041613;28;19947;-85
2023/07/27 14:31:44;;;;;;;;;;;;;;;6.12;100.00;98881.66;5041251;28;19917;-82
2023/07/27 14:34:10;;;;;;;;;;;;;;;6.17;100.00;98889.38;5040974;28;19917;-83
2023/07/27 14:36:35;;;;;;;;;;;;;;;6.15;100.00;98888.59;5042449;28;20286;-84
2023/07/27 14:39:01;;;;;;;;;;;;;;;6.19;100.00;98887.56;5041384;28;19921;-83
2023/07/27 14:41:26;;;;;;;;;;;;;;;6.14;100.00;98882.50;5042383;28;19964;-83
2023/07/27 14:43:52;;;;;;;;;;;;;;;6.20;100.00;98888.41;5042062;28;19931;-84
2023/07/27 14:46:17;;;;;;;;;;;;;;;6.19;100.00;98882.31;5066633;28;20311;-84
2023/07/27 14:48:43;;;;;;;;;;;;;;;6.17;100.00;98882.38;5042017;28;19952;-83
2023/07/27 14:51:08;;;;;;;;;;;;;;;6.18;100.00;98875.31;5040498;28;19960;-84
2023/07/27 14:53:33;;;;;;;;;;;;;;;6.18;100.00;98870.06;5042303;28;20376;-84
2023/07/27 14:55:59;;;;;;;;;;;;;;;6.20;100.00;98870.00;5042117;28;19917;-82
2023/07/27 14:58:24;;;;;;;;;;;;;;;6.21;100.00;98869.06;5041049;28;19924;-83
2023/07/27 15:00:50;;;;;;;;;;;;;;;6.18;100.00;98870.06;5042148;28;20309;-83
2023/07/27 15:03:15;;;;;;;;;;;;;;;6.22;100.00;98870.78;5040487;28;19917;-83
2023/07/27 15:05:41;;;;;;;;;;;;;;;6.17;100.00;98868.34;5041050;28;19923;-82
2023/07/27 15:08:06;;;;;;;;;;;;;;;6.18;100.00;98862.16;5041870;28;19936;-82
2023/07/27 15:10:32;;;;;;;;;;;;;;;6.17;100.00;98869.22;5040807;28;20368;-82
2023/07/27 15:12:58;;;;;;;;;;;;;;;6.20;100.00;98870.00;5041925;28;19982;-82
2023/07/27 15:15:24;;;;;;;;;;;;;;;6.26;100.00;98872.41;5042655;28;19917;-82
2023/07/27 15:17:49;;;;;;;;;;;;;;;6.23;100.00;98867.25;5057184;28;20004;-83
2023/07/27 15:20:14;;;;;;;;;;;;;;;6.23;100.00;98862.00;5040262;28;19921;-84
2023/07/27 15:22:40;;;;;;;;;;;;;;;6.23;100.00;98870.72;5042066;28;19917;-83
2023/07/27 15:25:05;;;;;;;;;;;;;;;6.17;100.00;98869.22;5040397;28;20019;-90
2023/07/27 15:27:30;;;;;;;;;;;;;;;6.17;100.00;98871.84;5040157;28;19921;-82
2023/07/27 15:29:56;;;;;;;;;;;;;;;6.19;100.00;98869.16;5040007;28;20368;-83
2023/07/27 15:32:21;;;;;;;;;;;;;;;6.14;100.00;98868.47;5040346;28;19913;-83
2023/07/27 15:34:47;;;;;;;;;;;;;;;6.17;100.00;98863.06;5038492;28;19923;-83
2023/07/27 15:37:12;;;;;;;;;;;;;;;6.24;100.00;98858.41;5040577;28;19917;-83
2023/07/27 15:39:38;;;;;;;;;;;;;;;6.22;100.00;98861.13;5041138;28;20430;-84
2023/07/27 15:42:03;;;;;;;;;;;;;;;6.22;100.00;98862.91;5035081;28;20403;-81
2023/07/27 15:44:28;;;;;;;;;;;;;;;6.19;100.00;98869.16;5039820;28;20275;-84
2023/07/27 15:46:53;;;;;;;;;;;;;;;6.20;100.00;98862.97;5036999;28;19921;-84
2023/07/27 15:49:19;;;;;;;;;;;;;;;6.16;100.00;98867.50;5039235;28;19932;-82
2023/07/27 15:51:44;;;;;;;;;;;;;;;6.18;100.00;98867.44;5040823;28;19921;-84
2023/07/27 15:54:09;;;;;;;;;;;;;;;6.17;100.00;98866.59;5041572;28;19928;-83
2023/07/27 15:56:35;;;;;;;;;;;;;;;6.19;100.00;98861.25;5039919;28;19917;-82
2023/07/27 15:59:00;;;;;;;;;;;;;;;6.17;100.00;98861.31;5037367;28;20020;-88
2023/07/27 16:01:31;;;;;;;;;;;;;;;6.21;100.00;98866.44;5041172;28;20458;-83
2023/07/27 16:03:56;;;;;;;;;;;;;;;6.16;100.00;98859.59;5044699;28;19996;-87
2023/07/27 16:06:21;;;;;;;;;;;;;;;6.18;100.00;98870.91;5036724;28;19929;-89
2023/07/27 16:08:46;;;;;;;;;;;;;;;6.11;100.00;98868.56;5041181;28;20355;-82
2023/07/27 16:11:12;;;;;;;;;;;;;;;6.09;100.00;98876.53;5041424;28;19925;-83
2023/07/27 16:13:37;;;;;;;;;;;;;;;6.14;100.00;98874.59;5039383;28;19945;-82
2023/07/27 16:16:03;;;;;;;;;;;;;;;6.11;100.00;98879.09;5039547;28;19925;-83
2023/07/27 16:18:29;;;;;;;;;;;;;;;6.11;100.00;98872.09;5044646;28;20291;-83
2023/07/27 16:20:54;;;;;;;;;;;;;;;6.06;100.00;98878.44;5044067;28;19917;-83
2023/07/27 16:23:19;;;;;;;;;;;;;;;6.16;100.00;98877.16;5044393;28;19921;-83
2023/07/27 16:25:45;;;;;;;;;;;;;;;6.06;100.00;98881.06;5045099;28;20436;-84
2023/07/27 16:28:10;;;;;;;;;;;;;;;6.04;100.00;98877.63;5044488;28;19928;-85
2023/07/27 16:30:39;;;;;;;;;;;;;;;6.11;100.00;98884.34;5041573;28;19932;-84
2023/07/27 16:33:05;;;;;;;;;;;;;;;6.13;100.00;98878.13;5043534;28;19932;-83
2023/07/27 16:35:30;;;;;;;;;;;;;;;6.14;100.00;98889.50;5040224;28;19925;-83
2023/07/27 16:37:55;;;;;;;;;;;;;;;6.10;100.00;98895.81;5044725;28;19917;-85
2023/07/27 16:40:20;;;;;;;;;;;;;;;6.15;100.00;98901.75;5040885;28;20019;-86
2023/07/27 16:42:46;;;;;;;;;;;;;;;6.17;100.00;98897.28;5041130;28;19971;-84
2023/07/27 16:45:12;;;;;;;;;;;;;;;6.14;100.00;98900.03;5043832;28;19972;-84
2023/07/27 16:47:38;;;;;;;;;;;;;;;6.16;100.00;98892.94;5043840;28;19917;-84
2023/07/27 16:50:03;;;;;;;;;;;;;;;6.21;100.00;98898.00;5043657;28;19917;-84
2023/07/27 16:52:28;;;;;;;;;;;;;;;6.25;100.00;98891.72;5042225;28;19921;-83
2023/07/27 16:54:56;;;;;;;;;;;;;;;6.25;100.00;98902.25;5042912;28;19938;-84
2023/07/27 16:57:21;;;;;;;;;;;;;;;6.27;100.00;98897.78;5042824;28;19978;-84
2023/07/27 16:59:47;;;;;;;;;;;;;;;6.24;100.00;98901.41;5044389;28;19925;-84
2023/07/27 17:02:13;;;;;;;;;;;;;;;6.23;100.00;98894.41;5044623;28;19928;-84
2023/07/27 17:04:39;;;;;;;;;;;;;;;6.25;100.00;98889.94;5041448;28;19924;-81
2023/07/27 17:07:04;;;;;;;;;;;;;;;6.24;100.00;98905.78;5043968;28;19999;-85
2023/07/27 17:09:29;;;;;;;;;;;;;;;6.24;100.00;98896.13;5039031;28;19932;-86
2023/07/27 17:11:55;;;;;;;;;;;;;;;6.20;100.00;98897.16;5041935;28;19917;-83
2023/07/27 17:14:20;;;;;;;;;;;;;;;6.24;100.00;98897.88;5038794;28;19947;-86
2023/07/27 17:16:45;;;;;;;;;;;;;;;6.23;100.00;98899.66;5043935;28;20016;-82
2023/07/27 17:19:10;;;;;;;;;;;;;;;6.24;100.00;98903.16;5040755;28;20375;-84
2023/07/27 17:21:36;;;;;;;;;;;;;;;6.22;100.00;98903.22;5037458;28;20311;-83
2023/07/27 17:24:01;;;;;;;;;;;;;;;6.22;100.00;98903.22;5037119;28;20287;-82
2023/07/27 17:26:26;;;;;;;;;;;;;;;6.24;100.00;98900.50;5043059;28;19931;-83
2023/07/27 17:28:51;;;;;;;;;;;;;;;6.26;100.00;98904.81;5043919;28;19936;-84
2023/07/27 17:31:17;;;;;;;;;;;;;;;6.21;100.00;98912.03;5035780;28;20001;-83
2023/07/27 17:33:42;;;;;;;;;;;;;;;6.24;100.00;98909.28;5036950;28;19941;-82
2023/07/27 17:36:08;;;;;;;;;;;;;;;6.30;100.00;98903.78;5037532;28;19921;-83
2023/07/27 17:38:33;;;;;;;;;;;;;;;6.31;100.00;98912.53;5041995;28;19925;-83
2023/07/27 17:41:00;;;;;;;;;;;;;;;6.28;100.00;98908.22;5042162;28;19923;-83
2023/07/27 17:43:25;;;;;;;;;;;;;;;6.29;100.00;98909.97;5039833;28;19916;-82
2023/07/27 17:45:51;;;;;;;;;;;;;;;6.34;100.00;98907.16;5038771;28;20379;-87
2023/07/27 17:48:18;;;;;;;;;;;;;;;6.28;100.00;98902.13;5039583;28;19928;-82
2023/07/27 17:50:44;;;;;;;;;;;;;;;6.31;100.00;98908.13;5038430;28;19935;-81
2023/07/27 17:53:09;;;;;;;;;;;;;;;6.32;100.00;98907.22;5039751;28;19925;-81
2023/07/27 17:55:35;;;;;;;;;;;;;;;6.32;100.00;98904.56;5037692;28;20289;-82
2023/07/27 17:58:00;;;;;;;;;;;;;;;6.33;100.00;98903.66;5041791;28;20368;-84
2023/07/27 18:00:26;;;;;;;;;;;;;;;6.34;100.00;98905.38;5043423;28;19927;-86
2023/07/27 18:02:51;;;;;;;;;;;;;;;6.32;100.00;98911.63;5036653;28;19923;-83
2023/07/27 18:05:16;;;;;;;;;;;;;;;6.34;100.00;98913.25;5036131;28;20410;-82
2023/07/27 18:07:42;;;;;;;;;;;;;;;6.35;100.00;98907.09;5038003;28;19929;-83
2023/07/27 18:10:07;;;;;;;;;;;;;;;6.36;100.00;98908.78;5041826;28;19921;-82
2023/07/27 18:12:35;;;;;;;;;;;;;;;6.36;100.00;98914.03;5042676;28;20368;-82
2023/07/27 18:15:01;;;;;;;;;;;;;;;6.34;100.00;98913.25;5038547;28;19946;-83
2023/07/27 18:17:26;;;;;;;;;;;;;;;6.36;100.00;98927.19;5043185;28;19921;-83
2023/07/27 18:19:52;;;;;;;;;;;;;;;6.36;100.00;98927.19;5033947;28;19968;-82
2023/07/27 18:22:17;;;;;;;;;;;;;;;6.34;100.00;98929.03;5039022;28;20335;-85
2023/07/27 18:24:43;;;;;;;;;;;;;;;6.44;100.00;98926.91;5040870;28;19921;-86
2023/07/27 18:27:08;;;;;;;;;;;;;;;6.42;100.00;98930.53;5040292;28;19931;-87
2023/07/27 18:29:33;;;;;;;;;;;;;;;6.40;100.00;98927.97;5031582;28;20010;-83
2023/07/27 18:31:58;;;;;;;;;;;;;;;6.41;100.00;98934.06;5036056;28;20055;-84
2023/07/27 18:34:24;;;;;;;;;;;;;;;6.38;100.00;98932.41;5035826;28;20372;-84
2023/07/27 18:36:49;;;;;;;;;;;;;;;6.39;100.00;98928.88;5042468;28;19921;-82
2023/07/27 18:39:14;;;;;;;;;;;;;;;6.38;100.00;98929.78;5042321;28;19971;-82
2023/07/27 18:41:44;;;;;;;;;;;;;;;6.38;100.00;98928.94;5041982;28;20485;-81
2023/07/27 18:44:10;;;;;;;;;;;;;;;6.39;100.00;98928.03;5038006;28;19947;-82
2023/07/27 18:46:35;;;;;;;;;;;;;;;6.41;100.00;98928.81;5040119;28;19925;-82
2023/07/27 18:49:00;;;;;;;;;;;;;;;6.45;100.00;98930.41;5041866;28;19921;-83
2023/07/27 18:51:26;;;;;;;;;;;;;;;6.40;100.00;98932.34;5037542;28;19928;-83
2023/07/27 18:53:51;;;;;;;;;;;;;;;6.43;100.00;98937.50;5034111;28;19932;-85
2023/07/27 18:56:17;;;;;;;;;;;;;;;6.48;100.00;98938.19;5040273;28;20441;-83
2023/07/27 18:58:42;;;;;;;;;;;;;;;6.45;100.00;98946.19;5038901;28;20551;-84
2023/07/27 19:01:07;;;;;;;;;;;;;;;6.41;100.00;98939.34;5040779;28;20309;-83
2023/07/27 19:03:36;;;;;;;;;;;;;;;6.37;100.00;98938.59;5038859;28;19974;-83
2023/07/27 19:06:02;;;;;;;;;;;;;;;6.40;100.00;98942.88;5037940;28;19927;-82
2023/07/27 19:08:31;;;;;;;;;;;;;;;6.40;100.00;98938.50;5040507;28;20408;-82
2023/07/27 19:10:59;;;;;;;;;;;;;;;6.36;100.00;98932.47;5039767;28;19924;-82
2023/07/27 19:13:24;;;;;;;;;;;;;;;6.40;100.00;98932.34;5038121;28;19928;-83
2023/07/27 19:15:49;;;;;;;;;;;;;;;6.45;100.00;98930.41;5032594;28;19925;-83
2023/07/27 19:18:15;;;;;;;;;;;;;;;6.41;100.00;98934.06;5020712;28;19925;-83
2023/07/27 19:20:40;;;;;;;;;;;;;;;6.43;100.00;98933.09;5033514;28;19930;-83
2023/07/27 19:23:06;;;;;;;;;;;;;;;6.43;100.00;98925.22;5037846;28;20000;-83
2023/07/27 19:25:36;;;;;;;;;;;;;;;6.42;100.00;98930.53;5039569;28;20290;-83
2023/07/27 19:28:02;;;;;;;;;;;;;;;6.50;100.00;98933.72;5035641;28;19975;-82
2023/07/27 19:30:27;;;;;;;;;;;;;;;6.44;100.00;98923.44;5034204;28;20010;-87
2023/07/27 19:32:52;;;;;;;;;;;;;;;6.44;100.00;98928.69;5037770;28;19936;-83
2023/07/27 19:35:19;;;;;;;;;;;;;;;6.47;100.00;98932.03;5040194;28;19924;-83
2023/07/27 19:37:44;;;;;;;;;;;;;;;6.45;100.00;98933.03;5041217;28;19923;-83
2023/07/27 19:40:09;;;;;;;;;;;;;;;6.42;100.00;98941.91;5041675;28;19926;-84
2023/07/27 19:42:35;;;;;;;;;;;;;;;6.46;100.00;98942.63;5041550;28;19950;-83
2023/07/27 19:45:00;;;;;;;;;;;;;;;6.50;100.00;98936.34;5041944;28;19917;-83
2023/07/27 19:47:26;;;;;;;;;;;;;;;6.45;100.00;98935.69;5042719;28;20372;-83
2023/07/27 19:49:51;;;;;;;;;;;;;;;6.44;100.00;98939.22;5040669;28;19924;-83
2023/07/27 19:52:16;;;;;;;;;;;;;;;6.42;100.00;98941.06;5043470;28;20865;-83
2023/07/27 19:54:41;;;;;;;;;;;;;;;6.41;100.00;98947.22;5043166;28;19925;-89
2023/07/27 19:57:07;;;;;;;;;;;;;;;6.49;100.00;98947.78;5044085;28;19913;-83
2023/07/27 19:59:32;;;;;;;;;;;;;;;6.46;100.00;98950.53;5043952;28;20011;-83
2023/07/27 20:01:59;;;;;;;;;;;;;;;6.42;100.00;98951.59;5045686;28;19936;-83
2023/07/27 20:04:26;;;;;;;;;;;;;;;6.45;100.00;98956.72;5040999;28;19924;-83
2023/07/27 20:06:51;;;;;;;;;;;;;;;6.42;100.00;98954.22;5038453;28;19925;-83
2023/07/27 20:09:16;;;;;;;;;;;;;;;6.45;100.00;98954.94;5039509;28;19925;-84
2023/07/27 20:11:43;;;;;;;;;;;;;;;6.43;100.00;98955.91;5041484;28;19971;-81
2023/07/27 20:14:11;;;;;;;;;;;;;;;6.47;100.00;98952.25;5041961;28;19983;-84
2023/07/27 20:16:36;;;;;;;;;;;;;;;6.49;100.00;98955.66;5039665;28;19929;-83
2023/07/27 20:19:01;;;;;;;;;;;;;;;6.52;100.00;98966.94;5040491;28;19931;-82
2023/07/27 20:21:27;;;;;;;;;;;;;;;6.49;100.00;98960.94;5040244;28;19925;-83
2023/07/27 20:23:52;;;;;;;;;;;;;;;6.51;100.00;98956.47;5037367;28;19929;-85
2023/07/27 20:26:18;;;;;;;;;;;;;;;6.44;100.00;98955.00;5042101;28;20327;-82
2023/07/27 20:28:45;;;;;;;;;;;;;;;6.48;100.00;98944.31;5035367;28;20400;-84
2023/07/27 20:31:10;;;;;;;;;;;;;;;6.59;100.00;98950.91;5040541;28;19978;-84